Time;durP1;ratioP1;P1;durP2;ratioP2;P2;SDS_P1;SDS_P2;PMS_P1;PMS_P2;Temp;Humidity;BMP_temperature;BMP_pressure;BME280_temperature;BME280_humidity;BME280_pressure;Samples;Min_cycle;Max_cycle;Signal;HPM_P1;HPM_P2
2022/01/13 00:01:41;;;;;;;18.30;10.87;;;;;;;-142.91;100.00;56616.03;5050390;28;20299;-64
2022/01/13 00:04:09;;;;;;;20.87;11.93;;;;;;;-142.91;100.00;56616.03;5060369;28;20240;-64
2022/01/13 00:06:38;;;;;;;20.57;12.47;;;;;;;-142.91;100.00;56616.03;5061063;28;20198;-64
2022/01/13 00:09:05;;;;;;;18.33;11.03;;;;;;;-142.91;100.00;56616.03;5060140;28;21039;-64
2022/01/13 00:11:32;;;;;;;19.57;11.57;;;;;;;-142.91;100.00;56616.03;5060756;28;20205;-64
2022/01/13 00:14:22;;;;;;;17.10;10.87;;;;;;;-142.91;100.00;56616.03;5061996;28;20291;-64
2022/01/13 00:17:09;;;;;;;22.30;10.60;;;;;;;-142.91;100.00;56616.03;5060745;28;20253;-64
2022/01/13 00:19:50;;;;;;;22.70;12.60;;;;;;;-142.91;100.00;56616.03;5060690;28;20222;-64
2022/01/13 00:22:25;;;;;;;21.60;11.20;;;;;;;-142.91;100.00;56616.03;5060362;28;20233;-64
2022/01/13 00:24:56;;;;;;;22.70;12.90;;;;;;;-142.91;100.00;56616.03;5059861;28;20198;-63
2022/01/13 00:27:25;;;;;;;28.13;12.40;;;;;;;-142.91;100.00;56616.03;5061122;28;21347;-64
2022/01/13 00:29:55;;;;;;;23.37;12.67;;;;;;;-142.91;100.00;56616.03;5060167;28;20209;-63
2022/01/13 00:32:25;;;;;;;20.20;11.00;;;;;;;-142.91;100.00;56616.03;5060484;28;20202;-64
2022/01/13 00:34:52;;;;;;;21.73;12.77;;;;;;;-142.91;100.00;56616.03;5060528;28;20201;-63
2022/01/13 00:37:20;;;;;;;24.73;12.83;;;;;;;-142.91;100.00;56616.03;5060798;28;20258;-64
2022/01/13 00:39:46;;;;;;;22.23;13.03;;;;;;;-142.91;100.00;56616.03;5060676;28;20250;-63
2022/01/13 00:42:13;;;;;;;25.27;13.83;;;;;;;-142.91;100.00;56616.03;5059934;28;20234;-63
2022/01/13 00:44:42;;;;;;;22.10;13.33;;;;;;;-142.91;100.00;56616.03;5059685;28;20302;-64
2022/01/13 00:47:10;;;;;;;26.37;13.10;;;;;;;-142.91;100.00;56616.03;5060089;28;20285;-63
2022/01/13 00:49:37;;;;;;;25.47;13.00;;;;;;;-142.91;100.00;56616.03;5059557;28;20199;-63
2022/01/13 00:52:05;;;;;;;20.67;11.33;;;;;;;-142.91;100.00;56616.03;5059649;28;20316;-65
2022/01/13 00:54:35;;;;;;;23.03;12.70;;;;;;;-142.91;100.00;56616.03;5060796;28;20830;-63
2022/01/13 00:57:03;;;;;;;26.57;14.07;;;;;;;-142.91;100.00;56616.03;5060233;28;20235;-64
2022/01/13 00:59:29;;;;;;;29.40;12.97;;;;;;;-142.91;100.00;56616.03;5060406;28;20233;-63
2022/01/13 01:01:56;;;;;;;23.00;12.73;;;;;;;-142.91;100.00;56616.03;5060133;28;20202;-63
2022/01/13 01:04:24;;;;;;;26.83;13.00;;;;;;;-142.91;100.00;56616.03;5061186;28;20660;-63
2022/01/13 01:06:52;;;;;;;20.00;12.00;;;;;;;-142.91;100.00;56616.03;5059460;28;20670;-64
2022/01/13 01:09:27;;;;;;;21.13;11.73;;;;;;;-142.91;100.00;56616.03;5059579;28;20226;-63
2022/01/13 01:11:56;;;;;;;22.17;12.77;;;;;;;-142.91;100.00;56616.03;5059086;28;20691;-64
2022/01/13 01:14:23;;;;;;;26.73;13.47;;;;;;;-142.91;100.00;56616.03;5059137;28;20232;-63
2022/01/13 01:16:50;;;;;;;24.60;12.80;;;;;;;-142.91;100.00;56616.03;5059975;28;20724;-64
2022/01/13 01:19:26;;;;;;;21.73;12.40;;;;;;;-142.91;100.00;56616.03;5058638;28;20259;-63
2022/01/13 01:22:17;;;;;;;23.73;13.03;;;;;;;-142.91;100.00;56616.03;5059505;28;20317;-63
2022/01/13 01:27:30;;;;;;;21.83;12.07;;;;;;;-142.91;100.00;56616.03;5032582;28;20206;-64
2022/01/13 01:30:02;;;;;;;22.73;12.47;;;;;;;-142.91;100.00;56616.03;5059067;28;20207;-64
2022/01/13 01:32:30;;;;;;;29.10;13.37;;;;;;;-142.91;100.00;56616.03;5059713;28;20591;-63
2022/01/13 01:35:01;;;;;;;22.10;12.40;;;;;;;-142.91;100.00;56616.03;5059775;28;20213;-64
2022/01/13 01:37:30;;;;;;;22.63;13.20;;;;;;;-142.91;100.00;56616.03;5060232;28;20291;-64
2022/01/13 01:40:00;;;;;;;25.40;12.67;;;;;;;-142.91;100.00;56616.03;5059043;28;20222;-64
2022/01/13 01:42:28;;;;;;;29.37;14.17;;;;;;;-142.91;100.00;56616.03;5059195;28;20202;-62
2022/01/13 01:44:58;;;;;;;26.53;12.33;;;;;;;-142.91;100.00;56616.03;5059074;28;21047;-65
2022/01/13 01:47:27;;;;;;;22.77;13.10;;;;;;;-142.91;100.00;56616.03;5059240;28;20229;-63
2022/01/13 01:49:57;;;;;;;26.77;13.17;;;;;;;-142.91;100.00;56616.03;5059508;28;20238;-65
2022/01/13 01:52:25;;;;;;;22.30;12.97;;;;;;;-142.91;100.00;56616.03;5058797;28;20203;-66
2022/01/13 01:54:52;;;;;;;22.23;12.37;;;;;;;-142.91;100.00;56616.03;5059146;28;20330;-64
2022/01/13 01:57:24;;;;;;;25.70;13.30;;;;;;;-142.91;100.00;56616.03;5059066;28;20725;-64
2022/01/13 01:59:54;;;;;;;22.47;11.70;;;;;;;-142.91;100.00;56616.03;5059062;28;20205;-64
2022/01/13 02:02:24;;;;;;;24.37;12.57;;;;;;;-142.91;100.00;56616.03;5058953;28;20637;-64
2022/01/13 02:04:51;;;;;;;26.93;13.13;;;;;;;-142.91;100.00;56616.03;5059261;28;20309;-63
2022/01/13 02:07:18;;;;;;;30.43;12.07;;;;;;;-142.91;100.00;56616.03;5063052;28;20216;-64
2022/01/13 02:09:50;;;;;;;29.67;12.60;;;;;;;-142.91;100.00;56616.03;5062967;28;20203;-65
2022/01/13 02:12:29;;;;;;;20.73;12.73;;;;;;;-142.91;100.00;56616.03;5063468;28;20284;-65
2022/01/13 02:15:04;;;;;;;19.83;11.73;;;;;;;-142.91;100.00;56616.03;5062260;28;20763;-64
2022/01/13 02:17:34;;;;;;;21.67;12.07;;;;;;;-142.91;100.00;56616.03;5062742;28;20241;-64
2022/01/13 02:20:04;;;;;;;26.20;13.97;;;;;;;-142.91;100.00;56616.03;5062007;28;20338;-64
2022/01/13 02:22:32;;;;;;;21.60;13.03;;;;;;;-142.91;100.00;56616.03;5063035;28;20555;-64
2022/01/13 02:24:59;;;;;;;27.27;13.83;;;;;;;-142.91;100.00;56616.03;5062587;28;20647;-63
2022/01/13 02:27:26;;;;;;;22.83;13.37;;;;;;;-142.91;100.00;56616.03;5063014;28;20226;-64
2022/01/13 02:29:53;;;;;;;21.33;12.77;;;;;;;-142.91;100.00;56616.03;5062658;28;20222;-64
2022/01/13 02:32:20;;;;;;;27.70;12.83;;;;;;;-142.91;100.00;56616.03;5061939;28;20886;-64
2022/01/13 02:34:47;;;;;;;26.37;13.50;;;;;;;-142.91;100.00;56616.03;5062189;28;20260;-63
2022/01/13 02:37:14;;;;;;;25.50;13.03;;;;;;;-142.91;100.00;56616.03;5062865;28;20233;-64
2022/01/13 02:39:42;;;;;;;19.23;12.10;;;;;;;-142.91;100.00;56616.03;5062661;28;20225;-64
2022/01/13 02:42:14;;;;;;;22.27;12.37;;;;;;;-142.91;100.00;56616.03;5062921;28;20294;-65
2022/01/13 02:44:49;;;;;;;29.23;13.37;;;;;;;-142.91;100.00;56616.03;5063372;28;20213;-64
2022/01/13 02:47:35;;;;;;;24.13;12.47;;;;;;;-142.91;100.00;56616.03;5064394;28;20667;-63
2022/01/13 02:50:02;;;;;;;22.43;11.90;;;;;;;-142.91;100.00;56616.03;5061955;28;21205;-64
2022/01/13 02:52:29;;;;;;;27.47;12.17;;;;;;;-142.91;100.00;56616.03;5062673;28;20243;-64
2022/01/13 02:54:57;;;;;;;24.53;11.40;;;;;;;-142.91;100.00;56616.03;5062160;28;20234;-64
2022/01/13 02:57:24;;;;;;;21.60;11.93;;;;;;;-142.91;100.00;56616.03;5062312;28;20261;-64
2022/01/13 02:59:51;;;;;;;23.00;13.20;;;;;;;-142.91;100.00;56616.03;5062033;28;20283;-64
2022/01/13 03:02:17;;;;;;;21.27;12.07;;;;;;;-142.91;100.00;56616.03;5061734;28;20245;-64
2022/01/13 03:04:46;;;;;;;28.30;13.57;;;;;;;-142.91;100.00;56616.03;5062470;28;20287;-64
2022/01/13 03:07:13;;;;;;;17.50;11.23;;;;;;;-142.91;100.00;56616.03;5062501;28;20242;-64
2022/01/13 03:09:40;;;;;;;19.83;10.83;;;;;;;-142.91;100.00;56616.03;5061681;28;20559;-64
2022/01/13 03:12:09;;;;;;;20.27;10.40;;;;;;;-142.91;100.00;56616.03;5062613;28;20206;-64
2022/01/13 03:14:36;;;;;;;20.17;11.13;;;;;;;-142.91;100.00;56616.03;5061404;28;20614;-65
2022/01/13 03:17:03;;;;;;;22.23;12.00;;;;;;;-142.91;100.00;56616.03;5062634;28;20652;-64
2022/01/13 03:19:29;;;;;;;24.07;12.13;;;;;;;-142.91;100.00;56616.03;5061728;28;20234;-65
2022/01/13 03:21:56;;;;;;;23.73;12.50;;;;;;;-142.91;100.00;56616.03;5062450;28;20269;-65
2022/01/13 03:24:24;;;;;;;25.37;12.80;;;;;;;-142.91;100.00;56616.03;5061385;28;20297;-64
2022/01/13 03:26:52;;;;;;;23.40;11.07;;;;;;;-142.91;100.00;56616.03;5060760;28;20202;-64
2022/01/13 03:29:22;;;;;;;19.80;12.03;;;;;;;-142.91;100.00;56616.03;5062556;28;20213;-64
2022/01/13 03:31:49;;;;;;;17.53;9.67;;;;;;;-142.91;100.00;56616.03;5060952;28;20264;-64
2022/01/13 03:34:17;;;;;;;21.33;11.97;;;;;;;-142.91;100.00;56616.03;5059894;28;20207;-64
2022/01/13 03:36:46;;;;;;;16.77;10.73;;;;;;;-142.91;100.00;56616.03;5059761;28;20693;-64
2022/01/13 03:39:14;;;;;;;20.30;11.73;;;;;;;-142.91;100.00;56616.03;5059601;28;20234;-64
2022/01/13 03:41:41;;;;;;;19.83;11.87;;;;;;;-142.91;100.00;56616.03;5060038;28;20208;-65
2022/01/13 03:44:17;;;;;;;22.63;11.63;;;;;;;-142.91;100.00;56616.03;5059974;28;20226;-64
2022/01/13 03:46:46;;;;;;;15.23;10.77;;;;;;;-142.91;100.00;56616.03;5060458;28;20205;-65
2022/01/13 03:49:12;;;;;;;26.93;12.77;;;;;;;-142.91;100.00;56616.03;5060730;28;20684;-64
2022/01/13 03:52:33;;;;;;;25.77;10.87;;;;;;;-142.91;100.00;56616.03;5061637;28;20299;-65
2022/01/13 03:55:54;;;;;;;18.67;9.43;;;;;;;-142.91;100.00;56616.03;5061331;28;20229;-64
2022/01/13 03:59:26;;;;;;;20.00;10.67;;;;;;;-142.91;100.00;56616.03;5061668;28;20233;-64
2022/01/13 04:02:06;;;;;;;18.10;10.57;;;;;;;-142.91;100.00;56616.03;5060892;28;20209;-65
2022/01/13 04:04:35;;;;;;;18.07;10.17;;;;;;;-142.91;100.00;56616.03;5062020;28;20628;-64
2022/01/13 04:07:14;;;;;;;21.00;11.37;;;;;;;-142.91;100.00;56616.03;5060959;28;20244;-65
2022/01/13 04:10:25;;;;;;;21.50;11.23;;;;;;;-142.91;100.00;56616.03;5060651;28;20237;-65
2022/01/13 04:12:52;;;;;;;23.37;10.50;;;;;;;-142.91;100.00;56616.03;5041227;28;20202;-64
2022/01/13 04:15:20;;;;;;;20.60;10.17;;;;;;;-142.91;100.00;56616.03;5060835;28;20688;-65
2022/01/13 04:17:48;;;;;;;18.43;10.23;;;;;;;-142.91;100.00;56616.03;5060537;28;20234;-65
2022/01/13 04:20:15;;;;;;;20.10;10.10;;;;;;;-142.91;100.00;56616.03;5060621;28;20303;-65
2022/01/13 04:22:42;;;;;;;15.33;9.67;;;;;;;-142.91;100.00;56616.03;5059918;28;20238;-66
2022/01/13 04:25:10;;;;;;;20.97;10.87;;;;;;;-142.91;100.00;56616.03;5060399;28;20194;-64
2022/01/13 04:27:42;;;;;;;17.10;10.00;;;;;;;-142.91;100.00;56616.03;5060102;28;20260;-67
2022/01/13 04:32:55;;;;;;;18.17;9.57;;;;;;;-142.91;100.00;56616.03;5056667;28;20206;-66
2022/01/13 04:35:21;;;;;;;19.43;11.33;;;;;;;-142.91;100.00;56616.03;5060513;28;20256;-65
2022/01/13 04:37:48;;;;;;;18.33;11.33;;;;;;;-142.91;100.00;56616.03;5060260;28;20265;-65
2022/01/13 04:40:15;;;;;;;19.30;8.60;;;;;;;-142.91;100.00;56616.03;5060525;28;20254;-65
2022/01/13 04:42:43;;;;;;;26.10;12.03;;;;;;;-142.91;100.00;56616.03;5060455;28;20291;-65
2022/01/13 04:45:11;;;;;;;21.33;10.97;;;;;;;-142.91;100.00;56616.03;5061058;28;20202;-65
2022/01/13 04:47:37;;;;;;;13.40;9.07;;;;;;;-142.91;100.00;56616.03;5060078;28;20233;-65
2022/01/13 04:50:06;;;;;;;17.67;9.43;;;;;;;-142.91;100.00;56616.03;5060456;28;20230;-65
2022/01/13 04:52:33;;;;;;;16.77;9.60;;;;;;;-142.91;100.00;56616.03;5060408;28;20307;-65
2022/01/13 04:55:07;;;;;;;14.80;8.73;;;;;;;-142.91;100.00;56616.03;5060061;28;20280;-65
2022/01/13 04:57:34;;;;;;;15.00;8.70;;;;;;;-142.91;100.00;56616.03;5060222;28;20874;-65
2022/01/13 05:00:01;;;;;;;15.43;8.73;;;;;;;-142.91;100.00;56616.03;5060119;28;20656;-65
2022/01/13 05:02:27;;;;;;;14.53;9.10;;;;;;;-142.91;100.00;56616.03;5059425;28;20256;-65
2022/01/13 05:04:54;;;;;;;49.90;8.43;;;;;;;-142.91;100.00;56616.03;5059684;28;20222;-65
2022/01/13 05:07:22;;;;;;;18.27;8.80;;;;;;;-142.91;100.00;56616.03;5059629;28;20213;-66
2022/01/13 05:09:49;;;;;;;16.63;8.60;;;;;;;-142.91;100.00;56616.03;5060857;28;20225;-65
2022/01/13 05:12:17;;;;;;;17.27;9.43;;;;;;;-142.91;100.00;56616.03;5059823;28;20202;-65
2022/01/13 05:14:44;;;;;;;28.90;12.80;;;;;;;-142.91;100.00;56616.03;5059946;28;20737;-63
2022/01/13 05:17:32;;;;;;;14.63;9.30;;;;;;;-142.91;100.00;56616.03;5059852;28;20217;-64
2022/01/13 05:20:12;;;;;;;14.00;9.03;;;;;;;-142.91;100.00;56616.03;5059513;28;20201;-63
2022/01/13 05:22:40;;;;;;;17.40;9.17;;;;;;;-142.91;100.00;56616.03;5060941;28;20283;-64
2022/01/13 05:25:07;;;;;;;16.83;7.57;;;;;;;-142.91;100.00;56616.03;5059422;28;20280;-63
2022/01/13 05:27:34;;;;;;;13.20;7.00;;;;;;;-142.91;100.00;56616.03;5059494;28;20681;-65
2022/01/13 05:30:03;;;;;;;10.47;7.43;;;;;;;-142.91;100.00;56616.03;5059428;28;20206;-65
2022/01/13 05:32:29;;;;;;;11.47;7.53;;;;;;;-142.91;100.00;56616.03;5059657;28;20218;-64
2022/01/13 05:34:56;;;;;;;11.43;7.13;;;;;;;-142.91;100.00;56616.03;5059473;28;20248;-65
2022/01/13 05:37:23;;;;;;;11.63;8.77;;;;;;;-142.91;100.00;56616.03;5059451;28;20233;-65
2022/01/13 05:39:51;;;;;;;12.93;8.00;;;;;;;-142.91;100.00;56616.03;5059214;28;20257;-65
2022/01/13 05:42:18;;;;;;;11.23;7.50;;;;;;;-142.91;100.00;56616.03;5059712;28;20251;-65
2022/01/13 05:44:47;;;;;;;9.87;7.43;;;;;;;-142.91;100.00;56616.03;5059544;28;20238;-65
2022/01/13 05:47:14;;;;;;;12.13;8.07;;;;;;;-142.91;100.00;56616.03;5059699;28;20210;-65
2022/01/13 05:49:43;;;;;;;18.23;8.40;;;;;;;-142.91;100.00;56616.03;5059114;28;20230;-65
2022/01/13 05:52:10;;;;;;;11.17;7.57;;;;;;;-142.91;100.00;56616.03;5059507;28;21234;-65
2022/01/13 05:54:37;;;;;;;12.53;7.30;;;;;;;-142.91;100.00;56616.03;5059564;28;20230;-64
2022/01/13 05:57:06;;;;;;;17.10;8.37;;;;;;;-142.91;100.00;56616.03;5058845;28;20234;-66
2022/01/13 05:59:33;;;;;;;10.20;8.07;;;;;;;-142.91;100.00;56616.03;5059101;28;20311;-65
2022/01/13 06:02:00;;;;;;;11.77;7.67;;;;;;;-142.91;100.00;56616.03;5059638;28;20234;-64
2022/01/13 06:04:27;;;;;;;10.63;6.47;;;;;;;-142.91;100.00;56616.03;5059409;28;20230;-63
2022/01/13 06:06:54;;;;;;;10.90;7.77;;;;;;;-142.91;100.00;56616.03;5059152;28;20208;-66
2022/01/13 06:09:21;;;;;;;14.03;7.07;;;;;;;-142.91;100.00;56616.03;5059267;28;20210;-64
2022/01/13 06:11:56;;;;;;;10.87;7.03;;;;;;;-142.91;100.00;56616.03;5059129;28;20259;-65
2022/01/13 06:14:24;;;;;;;13.93;8.27;;;;;;;-142.91;100.00;56616.03;5059249;28;20243;-65
2022/01/13 06:16:51;;;;;;;10.70;7.30;;;;;;;-142.91;100.00;56616.03;5059537;28;20226;-65
2022/01/13 06:19:17;;;;;;;11.60;7.80;;;;;;;-142.91;100.00;56616.03;5058821;28;20288;-65
2022/01/13 06:21:44;;;;;;;14.30;8.47;;;;;;;-142.91;100.00;56616.03;5059416;28;20674;-65
2022/01/13 06:24:11;;;;;;;13.17;8.43;;;;;;;-142.91;100.00;56616.03;5060382;28;20251;-65
2022/01/13 06:26:38;;;;;;;13.27;8.00;;;;;;;-142.91;100.00;56616.03;5059155;28;20716;-65
2022/01/13 06:29:06;;;;;;;16.40;8.57;;;;;;;-142.91;100.00;56616.03;5059370;28;21466;-65
2022/01/13 06:31:34;;;;;;;13.83;7.03;;;;;;;-142.91;100.00;56616.03;5059930;28;20693;-65
2022/01/13 06:34:01;;;;;;;11.87;7.20;;;;;;;-142.91;100.00;56616.03;5058468;28;20234;-65
2022/01/13 06:36:28;;;;;;;13.23;8.23;;;;;;;-142.91;100.00;56616.03;5058245;28;20280;-65
2022/01/13 06:38:55;;;;;;;12.53;8.17;;;;;;;-142.91;100.00;56616.03;5058566;28;20724;-65
2022/01/13 06:41:22;;;;;;;14.53;7.83;;;;;;;-142.91;100.00;56616.03;5059717;28;20226;-65
2022/01/13 06:43:48;;;;;;;13.13;6.57;;;;;;;-142.91;100.00;56616.03;5059163;28;20214;-65
2022/01/13 06:46:16;;;;;;;14.77;7.80;;;;;;;-142.91;100.00;56616.03;5058598;28;20234;-65
2022/01/13 06:48:45;;;;;;;11.30;6.57;;;;;;;-142.91;100.00;56616.03;5058946;28;20199;-65
2022/01/13 06:51:12;;;;;;;14.90;9.00;;;;;;;-142.91;100.00;56616.03;5059765;28;20214;-65
2022/01/13 06:53:38;;;;;;;9.93;7.90;;;;;;;-142.91;100.00;56616.03;5062982;28;20234;-65
2022/01/13 06:56:06;;;;;;;10.67;7.50;;;;;;;-142.91;100.00;56616.03;5062975;28;20640;-65
2022/01/13 06:58:32;;;;;;;15.73;8.57;;;;;;;-142.91;100.00;56616.03;5062633;28;20720;-65
2022/01/13 07:00:59;;;;;;;13.17;7.70;;;;;;;-142.91;100.00;56616.03;5062241;28;20263;-65
2022/01/13 07:03:26;;;;;;;13.53;8.63;;;;;;;-142.91;100.00;56616.03;5062148;28;20195;-65
2022/01/13 07:05:54;;;;;;;16.73;7.70;;;;;;;-142.91;100.00;56616.03;5062411;28;20198;-65
2022/01/13 07:08:21;;;;;;;13.30;7.50;;;;;;;-142.91;100.00;56616.03;5062928;28;20283;-65
2022/01/13 07:10:48;;;;;;;10.33;6.93;;;;;;;-142.91;100.00;56616.03;5063427;28;20279;-64
2022/01/13 07:13:14;;;;;;;12.90;7.37;;;;;;;-142.91;100.00;56616.03;5062228;28;20233;-66
2022/01/13 07:15:45;;;;;;;15.90;8.37;;;;;;;-142.91;100.00;56616.03;5061654;28;20242;-64
2022/01/13 07:18:12;;;;;;;12.43;6.83;;;;;;;-142.91;100.00;56616.03;5062379;28;20234;-65
2022/01/13 07:20:40;;;;;;;11.63;6.73;;;;;;;-142.91;100.00;56616.03;5062225;28;20233;-64
2022/01/13 07:23:08;;;;;;;13.53;7.30;;;;;;;-142.91;100.00;56616.03;5062200;28;20601;-65
2022/01/13 07:25:35;;;;;;;17.73;8.57;;;;;;;-142.91;100.00;56616.03;5061789;28;20259;-65
2022/01/13 07:28:01;;;;;;;12.20;7.90;;;;;;;-142.91;100.00;56616.03;5061762;28;21240;-65
2022/01/13 07:30:28;;;;;;;14.40;7.87;;;;;;;-142.91;100.00;56616.03;5062585;28;20693;-65
2022/01/13 07:32:55;;;;;;;12.80;8.40;;;;;;;-142.91;100.00;56616.03;5062245;28;20283;-65
2022/01/13 07:35:22;;;;;;;18.30;8.47;;;;;;;-142.91;100.00;56616.03;5062032;28;20280;-66
2022/01/13 07:37:49;;;;;;;13.43;7.47;;;;;;;-142.91;100.00;56616.03;5061048;28;20320;-63
2022/01/13 07:40:18;;;;;;;11.47;8.03;;;;;;;-142.91;100.00;56616.03;5061665;28;21069;-64
2022/01/13 07:42:46;;;;;;;13.37;7.33;;;;;;;-142.91;100.00;56616.03;5061090;28;20234;-64
2022/01/13 07:45:15;;;;;;;14.37;8.27;;;;;;;-142.91;100.00;56616.03;5061112;28;20206;-64
2022/01/13 07:47:42;;;;;;;14.37;8.33;;;;;;;-142.91;100.00;56616.03;5061712;28;20279;-64
2022/01/13 07:50:12;;;;;;;10.27;6.17;;;;;;;-142.91;100.00;56616.03;5061362;28;20234;-64
2022/01/13 07:52:39;;;;;;;12.40;7.80;;;;;;;-142.91;100.00;56616.03;5061155;28;20687;-65
2022/01/13 07:55:07;;;;;;;18.10;8.30;;;;;;;-142.91;100.00;56616.03;5060859;28;20297;-64
2022/01/13 07:57:35;;;;;;;18.03;9.37;;;;;;;-142.91;100.00;56616.03;5061931;28;20251;-64
2022/01/13 08:00:02;;;;;;;18.97;8.77;;;;;;;-142.91;100.00;56616.03;5060908;28;21166;-64
2022/01/13 08:02:28;;;;;;;17.63;8.50;;;;;;;-142.91;100.00;56616.03;5063017;28;20242;-63
2022/01/13 08:04:55;;;;;;;14.57;8.00;;;;;;;-142.91;100.00;56616.03;5061052;28;20643;-64
2022/01/13 08:07:22;;;;;;;11.47;7.37;;;;;;;-142.91;100.00;56616.03;5061370;28;20252;-66
2022/01/13 08:09:49;;;;;;;12.60;8.40;;;;;;;-142.91;100.00;56616.03;5060962;28;20275;-64
2022/01/13 08:12:16;;;;;;;15.23;8.07;;;;;;;-142.91;100.00;56616.03;5061113;28;20238;-63
2022/01/13 08:14:44;;;;;;;16.23;8.33;;;;;;;-142.91;100.00;56616.03;5060685;28;20230;-65
2022/01/13 08:17:19;;;;;;;14.37;7.93;;;;;;;-142.91;100.00;56616.03;5061673;28;20206;-65
2022/01/13 08:19:48;;;;;;;13.67;7.13;;;;;;;-142.91;100.00;56616.03;5061402;28;20773;-65
2022/01/13 08:22:15;;;;;;;14.90;7.03;;;;;;;-142.91;100.00;56616.03;5060759;28;20244;-65
2022/01/13 08:24:42;;;;;;;8.73;6.30;;;;;;;-142.91;100.00;56616.03;5061038;28;20206;-65
2022/01/13 08:27:09;;;;;;;13.53;7.60;;;;;;;-142.91;100.00;56616.03;5061440;28;20308;-65
2022/01/13 08:29:36;;;;;;;16.43;7.87;;;;;;;-142.91;100.00;56616.03;5060623;28;20219;-65
2022/01/13 08:32:05;;;;;;;11.43;6.27;;;;;;;-142.91;100.00;56616.03;5061077;28;20194;-65
2022/01/13 08:34:32;;;;;;;10.90;6.63;;;;;;;-142.91;100.00;56616.03;5061074;28;20300;-65
2022/01/13 08:36:58;;;;;;;13.13;6.80;;;;;;;-142.91;100.00;56616.03;5060395;28;20238;-65
2022/01/13 08:39:25;;;;;;;10.60;6.43;;;;;;;-142.91;100.00;56616.03;5059933;28;20284;-65
2022/01/13 08:41:52;;;;;;;10.90;6.83;;;;;;;-142.91;100.00;56616.03;5060422;28;20628;-65
2022/01/13 08:44:19;;;;;;;12.07;6.43;;;;;;;-142.91;100.00;56616.03;5062114;28;20261;-65
2022/01/13 08:46:46;;;;;;;8.03;6.73;;;;;;;-142.91;100.00;56616.03;5060512;28;20214;-65
2022/01/13 08:49:15;;;;;;;10.00;6.93;;;;;;;-142.91;100.00;56616.03;5059395;28;20234;-65
2022/01/13 08:51:42;;;;;;;10.63;6.37;;;;;;;-142.91;100.00;56616.03;5060497;28;20261;-65
2022/01/13 08:54:08;;;;;;;10.63;6.70;;;;;;;-142.91;100.00;56616.03;5060763;28;20237;-64
2022/01/13 08:56:36;;;;;;;13.43;7.13;;;;;;;-142.91;100.00;56616.03;5060251;28;20295;-64
2022/01/13 08:59:03;;;;;;;9.17;5.30;;;;;;;-142.91;100.00;56616.03;5060936;28;20230;-65
2022/01/13 09:01:30;;;;;;;6.90;6.30;;;;;;;-142.91;100.00;56616.03;5057954;28;20214;-63
2022/01/13 09:03:57;;;;;;;11.10;5.57;;;;;;;-142.91;100.00;56616.03;5059139;28;20296;-65
2022/01/13 09:06:25;;;;;;;10.83;5.87;;;;;;;-142.91;100.00;56616.03;5058783;28;20234;-63
2022/01/13 09:08:51;;;;;;;10.23;6.67;;;;;;;-142.91;100.00;56616.03;5060526;28;20234;-65
2022/01/13 09:11:18;;;;;;;15.70;7.10;;;;;;;-142.91;100.00;56616.03;5059524;28;20688;-64
2022/01/13 09:13:45;;;;;;;10.10;7.07;;;;;;;-142.91;100.00;56616.03;5059797;28;20255;-65
2022/01/13 09:16:16;;;;;;;11.47;7.07;;;;;;;-142.91;100.00;56616.03;5059430;28;20202;-64
2022/01/13 09:19:07;;;;;;;6.90;5.70;;;;;;;-142.91;100.00;56616.03;5057567;28;20283;-65
2022/01/13 09:21:37;;;;;;;9.77;6.47;;;;;;;-142.91;100.00;56616.03;5057863;28;20708;-65
2022/01/13 09:24:05;;;;;;;7.33;5.93;;;;;;;-142.91;100.00;56616.03;5057607;28;20202;-65
2022/01/13 09:26:32;;;;;;;11.70;7.13;;;;;;;-142.91;100.00;56616.03;5058548;28;20245;-65
2022/01/13 09:28:58;;;;;;;8.97;7.67;;;;;;;-142.91;100.00;56616.03;5057759;28;20237;-64
2022/01/13 09:31:26;;;;;;;11.73;7.50;;;;;;;-142.91;100.00;56616.03;5058662;28;20233;-64
2022/01/13 09:33:53;;;;;;;6.27;5.60;;;;;;;-142.91;100.00;56616.03;5062131;28;20201;-65
2022/01/13 09:36:20;;;;;;;17.33;6.97;;;;;;;-142.91;100.00;56616.03;5060235;28;20249;-65
2022/01/13 09:38:49;;;;;;;11.47;7.07;;;;;;;-142.91;100.00;56616.03;5059417;28;20275;-64
2022/01/13 09:41:16;;;;;;;10.60;7.63;;;;;;;-142.91;100.00;56616.03;5059268;28;20723;-64
2022/01/13 09:43:46;;;;;;;11.37;7.37;;;;;;;-142.91;100.00;56616.03;5060169;28;20230;-64
2022/01/13 09:46:13;;;;;;;9.60;6.43;;;;;;;-142.91;100.00;56616.03;5060372;28;20260;-64
2022/01/13 09:48:40;;;;;;;16.73;7.80;;;;;;;-142.91;100.00;56616.03;5059922;28;20238;-65
2022/01/13 09:51:08;;;;;;;13.37;7.97;;;;;;;-142.91;100.00;56616.03;5059730;28;20672;-64
2022/01/13 09:53:35;;;;;;;14.07;8.03;;;;;;;-142.91;100.00;56616.03;5059659;28;20201;-65
2022/01/13 09:56:04;;;;;;;15.93;8.03;;;;;;;-142.91;100.00;56616.03;5060277;28;20718;-65
2022/01/13 09:58:31;;;;;;;14.93;7.30;;;;;;;-142.91;100.00;56616.03;5059982;28;20205;-65
2022/01/13 10:00:59;;;;;;;9.63;7.27;;;;;;;-142.91;100.00;56616.03;5059435;28;20591;-64
2022/01/13 10:03:27;;;;;;;12.47;7.17;;;;;;;-142.91;100.00;56616.03;5059033;28;20293;-65
2022/01/13 10:05:55;;;;;;;12.27;8.13;;;;;;;-142.91;100.00;56616.03;5060174;28;20194;-65
2022/01/13 10:08:23;;;;;;;11.60;7.67;;;;;;;-142.91;100.00;56616.03;5059882;28;20206;-65
2022/01/13 10:10:50;;;;;;;13.87;8.40;;;;;;;-142.91;100.00;56616.03;5059559;28;20233;-65
2022/01/13 10:13:29;;;;;;;15.70;7.87;;;;;;;-142.91;100.00;56616.03;5059320;28;20209;-65
2022/01/13 10:18:52;;;;;;;12.70;7.87;;;;;;;-142.91;100.00;56616.03;5010355;28;20239;-65
2022/01/13 10:21:20;;;;;;;13.83;8.37;;;;;;;-142.91;100.00;56616.03;5046831;28;20245;-64
2022/01/13 10:24:03;;;;;;;13.77;8.30;;;;;;;-142.91;100.00;56616.03;5059051;28;20817;-65
2022/01/13 10:26:30;;;;;;;12.50;7.23;;;;;;;-142.91;100.00;56616.03;5058187;28;20703;-64
2022/01/13 10:28:59;;;;;;;11.50;7.87;;;;;;;-142.91;100.00;56616.03;5062492;28;21068;-64
2022/01/13 10:31:43;;;;;;;11.67;7.83;;;;;;;-142.91;100.00;56616.03;5062762;28;20238;-64
2022/01/13 10:34:22;;;;;;;10.20;7.23;;;;;;;-142.91;100.00;56616.03;5062620;28;20197;-65
2022/01/13 10:37:00;;;;;;;15.67;7.63;;;;;;;-142.91;100.00;56616.03;5062640;28;20218;-65
2022/01/13 10:39:45;;;;;;;14.70;8.87;;;;;;;-142.91;100.00;56616.03;5062492;28;20230;-64
2022/01/13 10:42:21;;;;;;;11.00;7.50;;;;;;;-142.91;100.00;56616.03;5062682;28;20905;-66
2022/01/13 10:44:55;;;;;;;13.53;8.03;;;;;;;-142.91;100.00;56616.03;5069623;28;20234;-65
2022/01/13 10:47:22;;;;;;;13.43;8.43;;;;;;;-142.91;100.00;56616.03;5071955;28;20255;-66
2022/01/13 10:49:50;;;;;;;12.43;7.30;;;;;;;-142.91;100.00;56616.03;5071403;28;20669;-65
2022/01/13 10:52:24;;;;;;;14.70;7.77;;;;;;;-142.91;100.00;56616.03;5070821;28;20267;-64
2022/01/13 10:54:53;;;;;;;13.97;6.43;;;;;;;-142.91;100.00;56616.03;5071270;28;20205;-65
2022/01/13 10:57:22;;;;;;;12.37;7.40;;;;;;;-142.91;100.00;56616.03;5071853;28;20289;-65
2022/01/13 10:59:49;;;;;;;11.83;7.27;;;;;;;-142.91;100.00;56616.03;5071539;28;20284;-65
2022/01/13 11:02:18;;;;;;;9.73;6.93;;;;;;;-142.91;100.00;56616.03;5069776;28;20205;-65
2022/01/13 11:04:45;;;;;;;14.47;7.80;;;;;;;-142.91;100.00;56616.03;5069790;28;20661;-65
2022/01/13 11:07:17;;;;;;;9.20;5.80;;;;;;;-142.91;100.00;56616.03;5070478;28;20263;-65
2022/01/13 11:09:53;;;;;;;11.83;7.13;;;;;;;-142.91;100.00;56616.03;5070230;28;20272;-65
2022/01/13 11:12:29;;;;;;;16.57;8.27;;;;;;;-142.91;100.00;56616.03;5069807;28;20292;-65
2022/01/13 11:15:00;;;;;;;11.90;7.27;;;;;;;-142.91;100.00;56616.03;5069693;28;20198;-66
2022/01/13 11:17:30;;;;;;;11.70;7.00;;;;;;;-142.91;100.00;56616.03;5070351;28;20194;-65
2022/01/13 11:19:57;;;;;;;11.80;8.20;;;;;;;-142.91;100.00;56616.03;5069798;28;20283;-65